This is the latest recevied weather packets stored in our database for station/object OK1LPD-6. If no packets are shown the sender has not sent any weather packets the latest 10 day(s).
| Time | Temp. | Humidity | Pressure | Rain* | Wind** | Luminosity | Snow |
|---|---|---|---|---|---|---|---|
| 1787648158 | 19.44° C | 52% | 1014.8 hPa | 0 mm | - | - | - |
| 1787647576 | 19.44° C | 53% | 1014.8 hPa | 0 mm | - | - | - |
| 1787646959 | 18.89° C | 54% | 1014.9 hPa | 0 mm | - | - | - |
| 1787646358 | 18.89° C | 53% | 1014.9 hPa | 0 mm | - | - | - |
| 1787645779 | 18.89° C | 54% | 1015 hPa | 0 mm | - | - | - |
| 1787645158 | 18.33° C | 56% | 1015.1 hPa | 0 mm | - | - | - |
| 1787644559 | 18.33° C | 56% | 1015.1 hPa | 0 mm | - | - | - |
| 1787643977 | 18.33° C | 56% | 1015.1 hPa | 0 mm | - | - | - |
| 1787643359 | 18.33° C | 57% | 1015.1 hPa | 0 mm | - | - | - |
| 1787642759 | 17.78° C | 58% | 1015 hPa | 0 mm | - | - | - |
| 1787642179 | 18.33° C | 56% | 1015.1 hPa | 0 mm | - | - | - |
| 1787641559 | 17.78° C | 60% | 1015.1 hPa | 0 mm | - | - | - |
| 1787640960 | 17.22° C | 64% | 1015 hPa | 0 mm | - | - | - |
| 1787640372 | 16.67° C | 64% | 1015 hPa | 0 mm | - | - | - |
| 1787639759 | 16.67° C | 66% | 1014.9 hPa | 0 mm | - | - | - |
| 1787639160 | 16.11° C | 68% | 1015.1 hPa | 0 mm | - | - | - |
| 1787638572 | 16.11° C | 69% | 1015.1 hPa | 0 mm | - | - | - |
| 1787637959 | 15.56° C | 70% | 1015 hPa | 0 mm | - | - | - |
| 1787637360 | 15.56° C | 70% | 1015.2 hPa | 0 mm | - | - | - |
| 1787636770 | 15° C | 71% | 1015.2 hPa | 0 mm | - | - | - |
| 1787636159 | 15° C | 72% | 1015.3 hPa | 0 mm | - | - | - |
| 1787635561 | 15° C | 72% | 1015.4 hPa | 0 mm | - | - | - |
| 1787634972 | 15° C | 72% | 1015.3 hPa | 0 mm | - | - | - |
| 1787634360 | 15° C | 72% | 1015.4 hPa | 0 mm | - | - | - |
| 1787633760 | 15° C | 72% | 1015.5 hPa | 0 mm | - | - | - |
* Rain latest hour (hover to see other rain measurements)
** Current wind speed in m/s (hover to see current wind gust speed)